Time;durP1;ratioP1;P1;durP2;ratioP2;P2;SDS_P1;SDS_P2;PMS_P1;PMS_P2;Temp;Humidity;BMP_temperature;BMP_pressure;BME280_temperature;BME280_humidity;BME280_pressure;Samples;Min_cycle;Max_cycle;Signal;HPM_P1;HPM_P2
2022/08/04 00:00:09;;;;;;;3.03;2.83;;;18.10;67.80;;;;;;4181269;28;20192;-70
2022/08/04 00:02:39;;;;;;;7.10;6.30;;;18.00;67.80;;;;;;4179104;28;20234;-71
2022/08/04 00:04:48;;;;;;;3.67;3.47;;;18.00;68.10;;;;;;4179551;28;20816;-70
2022/08/04 00:07:10;;;;;;;4.33;3.27;;;17.90;68.60;;;;;;4179726;28;20172;-71
2022/08/04 00:09:25;;;;;;;2.80;2.60;;;17.90;68.60;;;;;;4163391;28;20181;-70
2022/08/04 00:11:30;;;;;;;3.47;3.00;;;17.90;68.90;;;;;;4162475;28;20217;-71
2022/08/04 00:13:36;;;;;;;3.87;3.57;;;17.80;68.80;;;;;;4181164;28;20176;-70
2022/08/04 00:15:37;;;;;;;5.20;4.83;;;17.80;69.10;;;;;;4163349;28;20169;-71
2022/08/04 00:17:44;;;;;;;5.40;5.00;;;17.80;69.20;;;;;;4180951;28;20187;-70
2022/08/04 00:19:47;;;;;;;2.87;2.67;;;17.70;69.10;;;;;;4179778;28;20165;-72
2022/08/04 00:21:59;;;;;;;4.53;4.23;;;17.70;69.20;;;;;;4180471;28;20208;-71
2022/08/04 00:24:01;;;;;;;3.70;3.50;;;17.70;69.50;;;;;;4162795;28;20238;-73
2022/08/04 00:26:02;;;;;;;4.43;4.13;;;17.70;69.20;;;;;;4166371;28;20748;-71
2022/08/04 00:28:03;;;;;;;3.73;3.43;;;17.70;69.20;;;;;;4164214;28;20204;-70
2022/08/04 00:30:06;;;;;;;3.13;2.83;;;17.70;69.00;;;;;;4163957;28;20279;-70
2022/08/04 00:32:08;;;;;;;3.00;2.80;;;17.70;68.70;;;;;;4146118;28;20221;-71
2022/08/04 00:34:12;;;;;;;3.30;3.00;;;17.70;68.70;;;;;;4162646;28;20207;-71
2022/08/04 00:36:14;;;;;;;3.10;2.80;;;17.70;68.80;;;;;;4162897;28;20231;-70
2022/08/04 00:38:17;;;;;;;4.90;4.50;;;17.70;69.00;;;;;;4162711;28;20271;-71
2022/08/04 00:40:54;;;;;;;2.60;2.40;;;17.60;69.40;;;;;;4162215;28;20192;-71
2022/08/04 00:43:20;;;;;;;2.63;2.43;;;17.60;69.50;;;;;;4163987;28;20169;-71
2022/08/04 00:45:23;;;;;;;3.47;2.53;;;17.50;69.70;;;;;;4162596;28;20169;-71
2022/08/04 00:47:56;;;;;;;3.87;3.43;;;17.50;70.00;;;;;;4163902;28;20205;-71
2022/08/04 00:50:04;;;;;;;3.20;2.90;;;17.40;70.50;;;;;;4162485;28;20696;-71
2022/08/04 00:52:45;;;;;;;3.33;3.13;;;17.50;70.30;;;;;;4161669;28;20208;-71
2022/08/04 00:55:03;;;;;;;2.67;2.40;;;17.40;70.10;;;;;;4163701;28;20172;-70
2022/08/04 00:57:27;;;;;;;3.43;3.23;;;17.40;70.50;;;;;;4162623;28;20265;-71
2022/08/04 01:00:08;;;;;;;3.73;3.43;;;17.40;70.50;;;;;;4163804;28;20181;-70
2022/08/04 01:02:24;;;;;;;2.50;2.30;;;17.40;70.40;;;;;;4163196;28;20715;-71
2022/08/04 01:05:08;;;;;;;3.10;2.47;;;17.40;70.40;;;;;;4162359;28;20157;-71
2022/08/04 01:07:38;;;;;;;3.03;2.83;;;17.40;70.10;;;;;;4162371;28;20231;-71
2022/08/04 01:10:09;;;;;;;2.67;2.40;;;17.40;70.20;;;;;;4162409;28;20173;-72
2022/08/04 01:12:46;;;;;;;2.90;2.70;;;17.30;70.50;;;;;;4163312;28;20638;-72
2022/08/04 01:15:07;;;;;;;3.30;2.47;;;17.30;70.90;;;;;;4163594;28;20231;-72
2022/08/04 01:17:40;;;;;;;2.80;2.60;;;17.30;71.80;;;;;;4161974;28;20188;-72
2022/08/04 01:20:06;;;;;;;2.80;2.60;;;17.30;70.80;;;;;;4163345;28;20168;-72
2022/08/04 01:22:18;;;;;;;2.77;2.57;;;17.30;71.10;;;;;;4162753;28;20203;-71
2022/08/04 01:24:47;;;;;;;3.07;2.77;;;17.20;71.40;;;;;;4163238;28;20169;-71
2022/08/04 01:27:10;;;;;;;2.30;2.10;;;17.20;71.60;;;;;;4161939;28;20170;-71
2022/08/04 01:29:12;;;;;;;3.00;2.70;;;17.20;71.40;;;;;;4163132;28;20165;-71
2022/08/04 01:31:28;;;;;;;3.43;3.13;;;17.20;71.50;;;;;;4161070;28;20209;-71
2022/08/04 01:33:30;;;;;;;3.67;3.43;;;17.20;71.60;;;;;;4161954;28;20280;-71
2022/08/04 01:35:48;;;;;;;3.03;2.50;;;17.10;72.00;;;;;;4163105;28;20685;-71
2022/08/04 01:38:16;;;;;;;3.17;2.83;;;17.20;72.10;;;;;;4161090;28;20161;-71
2022/08/04 01:40:18;;;;;;;2.73;2.40;;;17.20;72.60;;;;;;4178232;28;20179;-71
2022/08/04 01:42:22;;;;;;;4.33;2.23;;;17.20;72.50;;;;;;4165498;28;20208;-70
2022/08/04 01:44:25;;;;;;;4.60;4.30;;;17.20;72.50;;;;;;4162432;28;20697;-72
2022/08/04 01:46:32;;;;;;;3.90;3.63;;;17.10;72.90;;;;;;4163686;28;20188;-74
2022/08/04 01:48:34;;;;;;;3.30;3.00;;;17.10;73.00;;;;;;4162423;28;20173;-72
2022/08/04 01:50:35;;;;;;;3.73;3.43;;;17.10;73.00;;;;;;4161623;28;20241;-73
2022/08/04 01:52:39;;;;;;;3.73;3.43;;;17.00;73.00;;;;;;4163783;28;20287;-72
2022/08/04 01:54:41;;;;;;;3.77;3.53;;;17.00;73.40;;;;;;4161911;28;20179;-72
2022/08/04 01:56:43;;;;;;;4.57;4.27;;;17.00;73.70;;;;;;4162002;28;20264;-72
2022/08/04 01:58:44;;;;;;;3.87;3.47;;;17.00;73.70;;;;;;4163816;28;20596;-73
2022/08/04 02:01:04;;;;;;;5.53;5.23;;;17.00;73.80;;;;;;4162514;28;20192;-72
2022/08/04 02:03:05;;;;;;;3.80;3.10;;;17.00;74.10;;;;;;4163147;28;20173;-72
2022/08/04 02:05:10;;;;;;;3.37;3.17;;;17.00;74.40;;;;;;4161613;28;20216;-72
2022/08/04 02:07:39;;;;;;;3.67;3.40;;;17.00;74.20;;;;;;4161543;28;20173;-72
2022/08/04 02:10:28;;;;;;;3.00;2.80;;;16.90;74.60;;;;;;4161480;28;20188;-72
2022/08/04 02:13:08;;;;;;;2.33;2.07;;;16.90;74.60;;;;;;4162607;28;20193;-72
2022/08/04 02:15:27;;;;;;;2.67;2.47;;;16.90;74.60;;;;;;4145167;28;20186;-72
2022/08/04 02:17:35;;;;;;;2.90;2.57;;;16.90;74.10;;;;;;4146292;28;20650;-72
2022/08/04 02:19:59;;;;;;;2.70;2.50;;;16.90;74.30;;;;;;4162738;28;20238;-72
2022/08/04 02:22:08;;;;;;;2.47;2.27;;;16.90;73.90;;;;;;4159568;28;20196;-73
2022/08/04 02:24:15;;;;;;;2.60;2.40;;;17.00;73.50;;;;;;4178624;28;20280;-73
2022/08/04 02:26:20;;;;;;;3.93;2.67;;;17.00;73.20;;;;;;4165525;28;20227;-72
2022/08/04 02:28:28;;;;;;;2.27;2.07;;;16.90;73.10;;;;;;4161187;28;20709;-72
2022/08/04 02:30:40;;;;;;;2.50;2.30;;;17.00;73.10;;;;;;4161629;28;20296;-72
2022/08/04 02:32:43;;;;;;;2.50;2.30;;;16.90;73.30;;;;;;4161398;28;20245;-72
2022/08/04 02:34:55;;;;;;;2.40;2.20;;;16.90;73.30;;;;;;4162511;28;20592;-72
2022/08/04 02:36:58;;;;;;;3.50;2.67;;;16.90;73.10;;;;;;4162563;28;20168;-70
2022/08/04 02:39:03;;;;;;;2.50;2.30;;;16.90;73.20;;;;;;4173610;28;20192;-71
2022/08/04 02:41:04;;;;;;;3.73;2.70;;;16.90;73.30;;;;;;4177216;28;20214;-71
2022/08/04 02:43:07;;;;;;;2.63;2.43;;;16.90;73.60;;;;;;4178797;28;20270;-72
2022/08/04 02:45:10;;;;;;;4.50;4.03;;;16.90;73.60;;;;;;4177459;28;20195;-73
2022/08/04 02:47:12;;;;;;;3.17;2.73;;;16.90;73.70;;;;;;4178553;28;20188;-71
2022/08/04 02:49:14;;;;;;;3.17;2.97;;;16.80;74.00;;;;;;4179019;28;20668;-71
2022/08/04 02:51:18;;;;;;;2.43;2.23;;;16.80;74.30;;;;;;4179915;28;20195;-71
2022/08/04 02:53:21;;;;;;;2.70;2.50;;;16.80;74.70;;;;;;4181978;28;20245;-71
2022/08/04 02:55:24;;;;;;;2.50;2.30;;;16.70;74.70;;;;;;4182043;28;20180;-72
2022/08/04 02:57:29;;;;;;;3.47;3.23;;;16.70;74.90;;;;;;4180644;28;20270;-71
2022/08/04 02:59:45;;;;;;;3.90;3.60;;;16.70;75.10;;;;;;4181041;28;20218;-72
2022/08/04 03:01:46;;;;;;;4.17;3.87;;;16.70;75.10;;;;;;4181534;28;20208;-72
2022/08/04 03:04:05;;;;;;;2.50;2.30;;;16.70;75.10;;;;;;4182000;28;20188;-72
2022/08/04 03:06:12;;;;;;;4.40;3.53;;;16.70;75.40;;;;;;4181903;28;20184;-72
2022/08/04 03:08:37;;;;;;;3.57;2.60;;;16.60;75.70;;;;;;4180564;28;20188;-71
2022/08/04 03:11:02;;;;;;;2.60;2.40;;;16.60;75.60;;;;;;4181016;28;20188;-71
2022/08/04 03:13:38;;;;;;;2.73;2.53;;;16.60;76.00;;;;;;4181791;28;20203;-72
2022/08/04 03:16:02;;;;;;;3.20;2.53;;;16.60;75.80;;;;;;4181191;28;20195;-72
2022/08/04 03:18:24;;;;;;;2.67;2.47;;;16.60;75.10;;;;;;4181573;28;20656;-71
2022/08/04 03:20:43;;;;;;;2.43;2.13;;;16.60;74.10;;;;;;4179601;28;20195;-71
2022/08/04 03:23:36;;;;;;;3.73;3.53;;;16.60;74.50;;;;;;4180248;28;20188;-72
2022/08/04 03:25:36;;;;;;;2.57;2.37;;;16.70;74.60;;;;;;4181524;28;20190;-72
2022/08/04 03:28:05;;;;;;;2.80;2.53;;;16.70;75.10;;;;;;4180235;28;20196;-72
2022/08/04 03:30:35;;;;;;;3.30;2.80;;;16.60;74.90;;;;;;4181491;28;20196;-72
2022/08/04 03:32:55;;;;;;;2.67;2.43;;;16.60;75.00;;;;;;4180183;28;20200;-74
2022/08/04 03:35:10;;;;;;;3.13;2.83;;;16.60;74.90;;;;;;4181396;28;20267;-72
2022/08/04 03:37:42;;;;;;;2.57;2.37;;;16.60;74.90;;;;;;4181488;28;20180;-72
2022/08/04 03:40:10;;;;;;;2.77;2.57;;;16.70;74.80;;;;;;4179914;28;20200;-73
2022/08/04 03:42:38;;;;;;;2.53;2.33;;;16.60;74.70;;;;;;4181396;28;20208;-73
2022/08/04 03:45:02;;;;;;;2.43;2.23;;;16.70;74.50;;;;;;4181469;28;20242;-73
2022/08/04 03:47:31;;;;;;;2.83;2.63;;;16.60;74.60;;;;;;4179926;28;20183;-73
2022/08/04 03:49:38;;;;;;;3.63;3.30;;;16.60;75.20;;;;;;4179919;28;20180;-72
2022/08/04 03:55:12;;;;;;;2.33;2.13;;;16.50;75.30;;;;;;4181509;28;20183;-72
2022/08/04 03:57:31;;;;;;;2.13;1.93;;;16.50;75.30;;;;;;4179798;28;20188;-73
2022/08/04 04:00:08;;;;;;;2.80;2.10;;;16.50;75.50;;;;;;4180962;28;20624;-73
2022/08/04 04:02:25;;;;;;;3.10;2.53;;;16.50;75.60;;;;;;4179119;28;20345;-71
2022/08/04 04:04:32;;;;;;;6.00;2.30;;;16.40;76.20;;;;;;4180903;28;20204;-73
2022/08/04 04:07:05;;;;;;;6.90;6.50;;;16.40;76.40;;;;;;4180893;28;20180;-71
2022/08/04 04:09:43;;;;;;;2.47;2.27;;;16.40;76.50;;;;;;4180902;28;20196;-73
2022/08/04 04:12:00;;;;;;;2.60;2.40;;;16.40;76.90;;;;;;4180223;28;20212;-72
2022/08/04 04:14:27;;;;;;;2.27;2.07;;;16.30;77.00;;;;;;4180818;28;20184;-72
2022/08/04 04:16:34;;;;;;;3.00;2.80;;;16.30;76.80;;;;;;4180617;28;20192;-72
2022/08/04 04:18:41;;;;;;;3.70;2.53;;;16.30;76.70;;;;;;4180891;28;20199;-71
2022/08/04 04:20:51;;;;;;;3.20;2.30;;;16.40;76.80;;;;;;4180043;28;20182;-72
2022/08/04 04:23:16;;;;;;;4.20;2.30;;;16.40;77.10;;;;;;4180513;28;20180;-73
2022/08/04 04:25:43;;;;;;;2.97;2.20;;;16.40;76.40;;;;;;4180524;28;20195;-72
2022/08/04 04:27:58;;;;;;;2.50;2.30;;;16.40;76.60;;;;;;4180623;28;20177;-72
2022/08/04 04:30:04;;;;;;;2.47;2.17;;;16.40;76.40;;;;;;4180263;28;20200;-73
2022/08/04 04:32:13;;;;;;;2.20;2.00;;;16.50;76.30;;;;;;4170525;28;20212;-73
2022/08/04 04:34:17;;;;;;;3.50;3.20;;;16.50;76.00;;;;;;4180032;28;20648;-72
2022/08/04 04:36:20;;;;;;;1.93;1.77;;;16.50;76.10;;;;;;4177997;28;20232;-72
2022/08/04 04:38:24;;;;;;;2.67;2.47;;;16.50;76.50;;;;;;4181249;28;20187;-72
2022/08/04 04:40:33;;;;;;;2.57;2.37;;;16.50;76.50;;;;;;4180130;28;20230;-72
2022/08/04 04:43:01;;;;;;;5.23;2.57;;;16.60;76.40;;;;;;4181168;28;20191;-72
2022/08/04 04:45:30;;;;;;;2.53;2.33;;;16.60;76.60;;;;;;4179699;28;20195;-72
2022/08/04 04:47:46;;;;;;;2.33;2.03;;;16.60;76.40;;;;;;4180518;28;20207;-72
2022/08/04 04:50:02;;;;;;;2.70;2.20;;;16.60;76.70;;;;;;4179384;28;20898;-72
2022/08/04 04:52:27;;;;;;;2.80;2.60;;;16.60;76.80;;;;;;4179685;28;20244;-72
2022/08/04 04:54:38;;;;;;;3.47;2.00;;;16.60;76.80;;;;;;4180571;28;20196;-72
2022/08/04 04:56:46;;;;;;;2.90;2.63;;;16.60;76.70;;;;;;4180560;28;20737;-72
2022/08/04 04:58:47;;;;;;;2.97;2.70;;;16.70;76.10;;;;;;4180742;28;20161;-72
2022/08/04 05:01:31;;;;;;;2.60;2.30;;;16.80;75.10;;;;;;4179915;28;20265;-72
2022/08/04 05:03:53;;;;;;;2.30;2.10;;;16.80;75.00;;;;;;4182278;28;20196;-74
2022/08/04 05:06:05;;;;;;;3.63;2.73;;;16.80;75.50;;;;;;4180789;28;20177;-72
2022/08/04 05:08:24;;;;;;;2.40;2.20;;;16.90;74.80;;;;;;4179098;28;20836;-72
2022/08/04 05:10:50;;;;;;;2.63;2.43;;;17.00;74.10;;;;;;4179889;28;20180;-72
2022/08/04 05:13:27;;;;;;;2.60;2.40;;;17.00;73.60;;;;;;4180122;28;20291;-72
2022/08/04 05:15:35;;;;;;;2.43;2.23;;;17.00;74.10;;;;;;4180371;28;20183;-72
2022/08/04 05:17:48;;;;;;;4.27;3.90;;;17.10;74.60;;;;;;4179371;28;20183;-72
2022/08/04 05:20:12;;;;;;;3.50;3.20;;;17.10;74.60;;;;;;4180796;28;20696;-72
2022/08/04 05:22:24;;;;;;;3.10;2.77;;;17.20;73.90;;;;;;4178608;28;20203;-73
2022/08/04 05:24:28;;;;;;;3.47;2.87;;;17.20;73.40;;;;;;4180282;28;20206;-73
2022/08/04 05:26:39;;;;;;;3.17;2.87;;;17.20;73.60;;;;;;4179084;28;20188;-73
2022/08/04 05:28:50;;;;;;;2.97;2.67;;;17.20;73.80;;;;;;4179015;28;20237;-74
2022/08/04 05:31:01;;;;;;;2.70;2.50;;;17.30;73.60;;;;;;4179693;28;20821;-74
2022/08/04 05:33:10;;;;;;;3.90;3.60;;;17.30;73.50;;;;;;4178737;28;20196;-74
2022/08/04 05:35:20;;;;;;;3.33;2.80;;;17.30;73.20;;;;;;4178349;28;20640;-72
2022/08/04 05:37:22;;;;;;;2.83;2.63;;;17.30;74.60;;;;;;4178754;28;20168;-74
2022/08/04 05:39:29;;;;;;;2.80;2.47;;;17.30;74.60;;;;;;4178816;28;20708;-74
2022/08/04 05:41:34;;;;;;;3.00;2.70;;;17.40;74.90;;;;;;4179103;28;20203;-74
2022/08/04 05:43:36;;;;;;;2.57;2.37;;;17.40;74.30;;;;;;4178768;28;20176;-74
2022/08/04 05:45:37;;;;;;;2.30;2.10;;;17.50;74.50;;;;;;4179394;28;20590;-73
2022/08/04 05:47:38;;;;;;;3.40;2.50;;;17.50;74.50;;;;;;4178119;28;20201;-74
2022/08/04 05:49:40;;;;;;;2.83;2.60;;;17.60;73.70;;;;;;4178168;28;20703;-74
2022/08/04 05:51:42;;;;;;;2.83;2.63;;;17.70;73.70;;;;;;4177283;28;20250;-74
2022/08/04 05:53:46;;;;;;;3.10;2.80;;;17.70;73.20;;;;;;4178438;28;20180;-73
2022/08/04 05:55:47;;;;;;;3.43;3.13;;;17.80;72.60;;;;;;4178197;28;20973;-74
2022/08/04 05:57:49;;;;;;;2.83;2.63;;;17.90;72.40;;;;;;4178174;28;20180;-74
2022/08/04 05:59:50;;;;;;;3.00;2.80;;;17.90;72.00;;;;;;4178034;28;20214;-75
2022/08/04 06:01:55;;;;;;;3.10;2.80;;;18.00;71.50;;;;;;4178771;28;20242;-74
2022/08/04 06:03:59;;;;;;;3.13;2.83;;;18.10;71.80;;;;;;4179254;28;20250;-74
2022/08/04 06:06:01;;;;;;;2.90;2.70;;;18.10;71.00;;;;;;4161320;28;20192;-75
2022/08/04 06:08:03;;;;;;;4.37;2.67;;;18.20;71.20;;;;;;4177741;28;20696;-74
2022/08/04 06:10:06;;;;;;;3.40;3.10;;;18.20;71.00;;;;;;4177854;28;20189;-74
2022/08/04 06:12:14;;;;;;;2.83;2.63;;;18.30;71.30;;;;;;4176939;28;20208;-75
2022/08/04 06:14:16;;;;;;;2.93;2.40;;;18.40;70.70;;;;;;4177912;28;20251;-75
2022/08/04 06:16:24;;;;;;;3.30;3.00;;;18.50;70.70;;;;;;4179038;28;20655;-75
2022/08/04 06:18:29;;;;;;;3.23;3.00;;;18.60;70.40;;;;;;4177763;28;20790;-75
2022/08/04 06:20:33;;;;;;;3.13;2.93;;;18.70;69.80;;;;;;4177056;28;20212;-75
2022/08/04 06:22:40;;;;;;;4.10;2.60;;;18.80;69.50;;;;;;4177489;28;20191;-75
2022/08/04 06:24:46;;;;;;;2.90;2.70;;;18.90;69.00;;;;;;4177135;28;20203;-75
2022/08/04 06:26:49;;;;;;;3.00;2.70;;;18.90;69.00;;;;;;4177845;28;20190;-75
2022/08/04 06:28:50;;;;;;;3.13;2.93;;;19.00;68.70;;;;;;4177591;28;20704;-74
2022/08/04 06:30:53;;;;;;;2.80;2.60;;;19.10;68.40;;;;;;4176993;28;20330;-75
2022/08/04 06:32:55;;;;;;;3.63;2.80;;;19.20;67.50;;;;;;4177716;28;20660;-75
2022/08/04 06:35:02;;;;;;;2.80;2.60;;;19.20;66.40;;;;;;4177388;28;20204;-74
2022/08/04 06:37:04;;;;;;;3.40;2.80;;;19.30;65.60;;;;;;4178722;28;20168;-73
2022/08/04 06:39:05;;;;;;;2.40;2.20;;;19.50;64.90;;;;;;4177416;28;20177;-74
2022/08/04 06:41:08;;;;;;;3.27;2.97;;;19.50;63.90;;;;;;4176935;28;20207;-75
2022/08/04 06:43:09;;;;;;;3.13;2.83;;;19.70;62.60;;;;;;4177438;28;20267;-74
2022/08/04 06:45:12;;;;;;;2.73;2.53;;;19.80;62.10;;;;;;4174972;28;20219;-75
2022/08/04 06:47:13;;;;;;;2.87;2.43;;;20.00;61.00;;;;;;4160738;28;20223;-75
2022/08/04 06:49:14;;;;;;;6.90;2.73;;;20.10;60.70;;;;;;4160762;28;20189;-75
2022/08/04 06:51:17;;;;;;;3.20;2.90;;;20.30;59.60;;;;;;4160372;28;20320;-75
2022/08/04 06:53:18;;;;;;;2.77;2.57;;;20.40;61.00;;;;;;4160794;28;20224;-75
2022/08/04 06:55:19;;;;;;;3.30;3.00;;;20.60;58.60;;;;;;4160812;28;20700;-75
2022/08/04 06:57:29;;;;;;;3.17;2.43;;;20.70;58.10;;;;;;4160718;28;20189;-75
2022/08/04 06:59:30;;;;;;;2.90;2.70;;;20.90;58.20;;;;;;4160775;28;20180;-74
2022/08/04 07:01:31;;;;;;;3.57;3.03;;;21.10;57.70;;;;;;4159771;28;20288;-72
2022/08/04 07:03:32;;;;;;;3.83;3.53;;;21.20;57.70;;;;;;4160689;28;20184;-76
2022/08/04 07:05:34;;;;;;;4.50;3.03;;;21.30;57.40;;;;;;4160594;28;20192;-73
2022/08/04 07:07:35;;;;;;;3.00;2.70;;;21.50;57.60;;;;;;4160709;28;20206;-74
2022/08/04 07:09:36;;;;;;;2.63;2.43;;;21.50;58.40;;;;;;4160676;28;20173;-74
2022/08/04 07:11:37;;;;;;;3.50;2.87;;;21.60;58.20;;;;;;4159767;28;20212;-75
2022/08/04 07:13:40;;;;;;;2.20;2.00;;;21.80;57.60;;;;;;4160600;28;20183;-74
2022/08/04 07:15:44;;;;;;;2.90;2.67;;;22.00;56.80;;;;;;4160629;28;20188;-73
2022/08/04 07:17:46;;;;;;;2.30;2.13;;;22.30;55.70;;;;;;4160575;28;20197;-73
2022/08/04 07:19:47;;;;;;;2.90;2.37;;;22.50;55.30;;;;;;4160562;28;20184;-74
2022/08/04 07:21:48;;;;;;;2.70;2.50;;;22.60;55.20;;;;;;4161164;28;20296;-73
2022/08/04 07:23:50;;;;;;;2.77;2.57;;;22.90;54.80;;;;;;4160612;28;20612;-73
2022/08/04 07:25:53;;;;;;;3.00;2.70;;;23.10;54.30;;;;;;4160716;28;20597;-73
2022/08/04 07:27:54;;;;;;;2.50;2.30;;;23.30;53.90;;;;;;4160635;28;20849;-73
2022/08/04 07:29:55;;;;;;;2.37;2.10;;;23.50;53.20;;;;;;4161705;28;20200;-73
2022/08/04 07:31:58;;;;;;;2.40;2.20;;;23.80;51.10;;;;;;4159938;28;20233;-73
2022/08/04 07:34:01;;;;;;;3.90;2.10;;;24.10;48.60;;;;;;4160603;28;20260;-73
2022/08/04 07:36:02;;;;;;;5.37;2.23;;;24.20;49.70;;;;;;4162209;28;20177;-75
2022/08/04 07:38:03;;;;;;;2.50;2.30;;;24.20;48.20;;;;;;4167908;28;20235;-73
2022/08/04 07:40:04;;;;;;;2.70;2.50;;;24.60;47.50;;;;;;4179983;28;20172;-72
2022/08/04 07:42:05;;;;;;;2.80;2.60;;;25.00;43.60;;;;;;4179240;28;20613;-73
2022/08/04 07:44:08;;;;;;;5.00;2.60;;;25.10;43.60;;;;;;4181111;28;20183;-73
2022/08/04 07:46:09;;;;;;;2.80;2.60;;;25.20;43.10;;;;;;4179830;28;20607;-73
2022/08/04 07:48:10;;;;;;;2.43;2.23;;;25.30;43.00;;;;;;4181071;28;20211;-72
2022/08/04 07:50:11;;;;;;;2.80;2.60;;;25.40;41.70;;;;;;4179534;28;20176;-72
2022/08/04 07:52:13;;;;;;;2.50;2.30;;;25.60;42.40;;;;;;4179384;28;20208;-70
2022/08/04 07:54:14;;;;;;;2.97;2.33;;;26.10;38.60;;;;;;4181033;28;20202;-70
2022/08/04 07:56:15;;;;;;;2.60;2.40;;;26.40;38.50;;;;;;4177284;28;20183;-69
2022/08/04 07:58:16;;;;;;;3.03;2.37;;;26.50;40.00;;;;;;4170889;28;20643;-71
2022/08/04 08:00:17;;;;;;;2.80;2.47;;;26.60;39.20;;;;;;4175947;28;20184;-69
2022/08/04 08:02:20;;;;;;;4.17;3.87;;;26.80;37.60;;;;;;4176192;28;20956;-69
2022/08/04 08:04:21;;;;;;;33.77;31.80;;;27.10;37.90;;;;;;4176580;28;20612;-69
2022/08/04 08:06:24;;;;;;;3.90;3.60;;;27.40;37.00;;;;;;4176329;28;20184;-71
2022/08/04 08:08:24;;;;;;;3.10;2.50;;;27.30;38.00;;;;;;4175626;28;20204;-69
2022/08/04 08:10:25;;;;;;;3.07;2.80;;;27.40;37.80;;;;;;4175454;28;20196;-69
2022/08/04 08:12:27;;;;;;;4.37;4.03;;;27.40;39.10;;;;;;4176225;28;20192;-69
2022/08/04 08:14:29;;;;;;;3.30;2.53;;;27.70;36.80;;;;;;4176274;28;20211;-69
2022/08/04 08:16:32;;;;;;;4.70;4.30;;;27.80;37.10;;;;;;4175949;28;20749;-70
2022/08/04 08:18:33;;;;;;;8.03;7.23;;;27.90;37.10;;;;;;4174456;28;20264;-70
2022/08/04 08:20:34;;;;;;;6.40;6.00;;;28.00;37.60;;;;;;4178164;28;20180;-71
2022/08/04 08:22:36;;;;;;;3.93;3.57;;;28.30;37.00;;;;;;4178487;28;20203;-70
2022/08/04 08:24:37;;;;;;;3.80;3.50;;;28.30;36.80;;;;;;4179171;28;20188;-70
2022/08/04 08:26:40;;;;;;;3.13;2.77;;;28.40;36.60;;;;;;4179167;28;20183;-70
2022/08/04 08:28:41;;;;;;;3.43;3.13;;;28.60;36.40;;;;;;4178994;28;20315;-70
2022/08/04 08:30:42;;;;;;;2.70;2.50;;;28.60;35.90;;;;;;4179152;28;20637;-70
2022/08/04 08:32:43;;;;;;;3.93;2.67;;;28.70;35.40;;;;;;4178773;28;20204;-70
2022/08/04 08:34:44;;;;;;;16.27;12.90;;;28.90;34.40;;;;;;4162522;28;20384;-69
2022/08/04 08:36:58;;;;;;;12.50;11.27;;;28.90;34.60;;;;;;4179020;28;20183;-68
2022/08/04 08:39:11;;;;;;;4.17;3.00;;;29.00;34.50;;;;;;4178709;28;20176;-69
2022/08/04 08:41:20;;;;;;;13.83;12.97;;;29.20;34.20;;;;;;4175512;28;20219;-69
2022/08/04 08:43:56;;;;;;;2.40;2.20;;;29.40;33.90;;;;;;4178767;28;20229;-69
2022/08/04 08:46:24;;;;;;;49.50;46.30;;;29.40;31.80;;;;;;4179885;28;20266;-69
2022/08/04 08:48:57;;;;;;;5.30;3.93;;;29.20;31.40;;;;;;4178176;28;20180;-70
2022/08/04 08:51:30;;;;;;;3.20;2.30;;;29.00;31.20;;;;;;4178054;28;20218;-69
2022/08/04 08:54:11;;;;;;;2.20;2.10;;;29.20;31.20;;;;;;4178565;28;20644;-70
2022/08/04 08:56:35;;;;;;;2.93;2.73;;;29.20;31.00;;;;;;4179789;28;20231;-69
2022/08/04 08:59:21;;;;;;;4.37;4.07;;;29.30;30.70;;;;;;4179748;28;20248;-68
2022/08/04 09:01:52;;;;;;;4.93;2.23;;;29.50;31.10;;;;;;4175834;28;20204;-69
2022/08/04 09:04:26;;;;;;;6.47;5.90;;;29.60;30.40;;;;;;4177870;28;20233;-70
2022/08/04 09:06:45;;;;;;;13.07;12.13;;;29.50;30.30;;;;;;4163057;28;20177;-69
2022/08/04 09:09:27;;;;;;;7.50;7.00;;;29.20;31.20;;;;;;4177994;28;20177;-71
2022/08/04 09:11:49;;;;;;;2.70;2.50;;;28.80;31.30;;;;;;4178720;28;20739;-71
2022/08/04 09:14:17;;;;;;;3.07;2.87;;;29.00;30.80;;;;;;4179592;28;20812;-71
2022/08/04 09:16:25;;;;;;;2.83;2.17;;;29.20;30.40;;;;;;4178256;28;20180;-71
2022/08/04 09:18:42;;;;;;;2.60;2.40;;;29.40;31.60;;;;;;4169463;28;20560;-71
2022/08/04 09:20:55;;;;;;;2.97;2.70;;;29.50;30.60;;;;;;4163345;28;20690;-69
2022/08/04 09:23:27;;;;;;;8.83;8.27;;;29.30;30.70;;;;;;4178065;28;20168;-68
2022/08/04 09:25:38;;;;;;;4.30;2.93;;;29.30;30.80;;;;;;4179275;28;20330;-69
2022/08/04 09:28:17;;;;;;;2.70;2.50;;;29.30;30.40;;;;;;4177801;28;20742;-68
2022/08/04 09:30:21;;;;;;;3.77;2.40;;;29.40;30.00;;;;;;4177181;28;20223;-69
2022/08/04 09:32:47;;;;;;;2.50;2.30;;;29.40;30.30;;;;;;4179597;28;20210;-70
2022/08/04 09:35:21;;;;;;;3.37;2.43;;;29.30;31.30;;;;;;4164845;28;20176;-69
2022/08/04 09:37:43;;;;;;;2.57;2.37;;;29.80;30.20;;;;;;4177896;28;20168;-69
2022/08/04 09:40:17;;;;;;;3.53;2.17;;;30.30;30.20;;;;;;4177455;28;20639;-69
2022/08/04 09:42:56;;;;;;;2.90;2.70;;;30.70;28.80;;;;;;4177218;28;20233;-69
2022/08/04 09:45:11;;;;;;;53.65;50.42;;;31.10;28.30;;;;;;4166557;28;20184;-69
2022/08/04 09:47:50;;;;;;;5.97;5.47;;;31.50;27.60;;;;;;4177463;28;20255;-69
2022/08/04 09:50:34;;;;;;;4.82;4.47;;;31.70;27.60;;;;;;4177249;28;20176;-71
2022/08/04 09:52:59;;;;;;;3.75;3.40;;;31.40;28.00;;;;;;4163660;28;20250;-70
2022/08/04 09:55:22;;;;;;;4.78;4.30;;;31.20;27.70;;;;;;4177102;28;20165;-69
2022/08/04 09:57:55;;;;;;;4.30;3.90;;;31.00;27.80;;;;;;4178293;28;20653;-70
2022/08/04 10:00:09;;;;;;;4.07;3.77;;;30.70;28.60;;;;;;4176035;28;20269;-69
2022/08/04 10:02:14;;;;;;;3.70;3.40;;;30.60;28.50;;;;;;4176458;28;20208;-68
2022/08/04 10:04:18;;;;;;;2.93;2.57;;;30.70;28.50;;;;;;4177651;28;20215;-68
2022/08/04 10:07:02;;;;;;;4.13;3.83;;;31.10;28.30;;;;;;4177185;28;20184;-68
2022/08/04 10:09:30;;;;;;;4.47;4.18;;;31.40;27.60;;;;;;4167143;28;20180;-68
2022/08/04 10:11:58;;;;;;;2.95;2.67;;;31.60;27.10;;;;;;4177362;28;20577;-68
2022/08/04 10:14:16;;;;;;;4.38;4.07;;;31.80;27.30;;;;;;4177960;28;20562;-68
2022/08/04 10:16:47;;;;;;;16.80;15.68;;;32.50;26.70;;;;;;4177010;28;20731;-68
2022/08/04 10:19:14;;;;;;;17.55;16.48;;;32.70;26.20;;;;;;4169515;28;20222;-67
2022/08/04 10:21:21;;;;;;;2.95;2.75;;;32.50;26.10;;;;;;4176321;28;20220;-67
2022/08/04 10:23:41;;;;;;;2.83;2.63;;;32.60;26.00;;;;;;4177973;28;20187;-68
2022/08/04 10:25:59;;;;;;;32.90;30.45;;;32.90;26.10;;;;;;4177186;28;20188;-67
2022/08/04 10:28:10;;;;;;;11.88;10.88;;;33.00;25.40;;;;;;4178280;28;20195;-69
2022/08/04 10:30:13;;;;;;;5.43;4.78;;;33.10;25.00;;;;;;4177857;28;20668;-68
2022/08/04 10:32:26;;;;;;;51.50;48.25;;;33.40;24.80;;;;;;4177914;28;20215;-68
2022/08/04 10:34:42;;;;;;;12.73;11.95;;;33.60;24.20;;;;;;4160609;28;20168;-68
2022/08/04 10:37:27;;;;;;;4.30;4.00;;;33.50;24.40;;;;;;4177245;28;20170;-69
2022/08/04 10:40:35;;;;;;;3.80;3.50;;;34.10;23.50;;;;;;4178584;28;20584;-69
2022/08/04 10:42:26;;;;;;;2.80;2.60;;;34.40;23.80;;;;;;4176759;28;20220;-72
2022/08/04 10:45:18;;;;;;;3.38;3.00;;;34.40;23.30;;;;;;4160744;28;20523;-68
2022/08/04 10:47:24;;;;;;;6.50;5.82;;;35.10;22.70;;;;;;4159394;28;20612;-69
2022/08/04 10:49:53;;;;;;;38.88;35.75;;;36.10;21.90;;;;;;4167128;28;20196;-69
2022/08/04 10:52:02;;;;;;;3.30;3.00;;;36.50;21.60;;;;;;4176964;28;20208;-67
2022/08/04 10:54:10;;;;;;;70.75;66.97;;;36.00;21.50;;;;;;4176246;28;20708;-69
2022/08/04 10:56:22;;;;;;;44.47;41.22;;;36.30;21.90;;;;;;4176479;28;20241;-68
2022/08/04 10:58:32;;;;;;;22.95;21.70;;;37.10;20.70;;;;;;4176260;28;20184;-67
2022/08/04 11:00:38;;;;;;;2.75;2.55;;;36.40;21.30;;;;;;4175532;28;20198;-69
2022/08/04 11:03:09;;;;;;;71.93;66.45;;;36.50;21.50;;;;;;4176551;28;20179;-68
2022/08/04 11:05:52;;;;;;;4.22;3.90;;;37.00;21.00;;;;;;4176534;28;20233;-67
2022/08/04 11:08:02;;;;;;;4.20;3.90;;;38.00;19.70;;;;;;4177797;28;20317;-68
2022/08/04 11:10:05;;;;;;;3.83;3.55;;;37.80;19.70;;;;;;4176692;28;20188;-68
2022/08/04 11:12:16;;;;;;;3.05;2.85;;;37.50;20.40;;;;;;4179164;28;20210;-68
2022/08/04 11:14:27;;;;;;;2.85;2.63;;;38.10;19.00;;;;;;4179742;28;20191;-70
2022/08/04 11:17:07;;;;;;;12.40;11.38;;;38.30;18.60;;;;;;4164067;28;20267;-71
2022/08/04 11:19:32;;;;;;;27.20;22.40;;;37.00;19.30;;;;;;4162935;28;20247;-69
2022/08/04 11:21:34;;;;;;;19.65;6.95;;;37.10;20.10;;;;;;4180127;28;20279;-70
2022/08/04 11:23:43;;;;;;;27.75;25.30;;;37.90;19.20;;;;;;4179261;28;20650;-69
2022/08/04 11:25:56;;;;;;;11.25;10.38;;;37.70;17.20;;;;;;4179324;28;20649;-69
2022/08/04 11:28:23;;;;;;;6.30;5.93;;;37.50;17.50;;;;;;4179750;28;20807;-69
2022/08/04 11:30:54;;;;;;;13.05;12.00;;;37.40;17.90;;;;;;4162362;28;20220;-70
2022/08/04 11:33:31;;;;;;;3.15;2.88;;;37.00;17.70;;;;;;4160253;28;20270;-68
2022/08/04 11:35:43;;;;;;;3.30;2.92;;;37.60;18.10;;;;;;4179916;28;20246;-69